Time;durP1;ratioP1;P1;durP2;ratioP2;P2;SDS_P1;SDS_P2;PMS_P1;PMS_P2;Temp;Humidity;BMP_temperature;BMP_pressure;BME280_temperature;BME280_humidity;BME280_pressure;Samples;Min_cycle;Max_cycle;Signal;HPM_P1;HPM_P2
2022/10/30 00:00:39;;;;;;;1.10;0.70;;;16.10;99.90;;;;;;5009270;28;20063;-86
2022/10/30 00:03:09;;;;;;;1.00;0.82;;;16.10;99.90;;;;;;5007540;28;20057;-85
2022/10/30 00:05:38;;;;;;;2.15;0.90;;;16.00;99.90;;;;;;5005158;28;20081;-85
2022/10/30 00:08:05;;;;;;;1.00;0.68;;;16.00;99.90;;;;;;5018664;28;20049;-86
2022/10/30 00:10:32;;;;;;;1.55;0.90;;;16.00;99.90;;;;;;5042130;28;20562;-84
2022/10/30 00:12:58;;;;;;;1.35;0.90;;;16.00;99.90;;;;;;5008446;28;20136;-85
2022/10/30 00:15:25;;;;;;;1.40;1.00;;;15.90;99.90;;;;;;4999590;28;20393;-85
2022/10/30 00:17:52;;;;;;;1.45;0.88;;;15.90;99.90;;;;;;5005184;28;20056;-86
2022/10/30 00:20:19;;;;;;;0.98;0.70;;;15.90;99.90;;;;;;5023141;28;20060;-86
2022/10/30 00:22:46;;;;;;;1.17;0.70;;;15.80;99.90;;;;;;5004971;28;20055;-86
2022/10/30 00:25:12;;;;;;;1.45;0.80;;;15.80;99.90;;;;;;5039995;28;20528;-86
2022/10/30 00:27:39;;;;;;;1.23;0.88;;;15.80;99.90;;;;;;5024906;28;20128;-86
2022/10/30 00:30:07;;;;;;;1.40;0.98;;;15.80;99.90;;;;;;5025604;28;20071;-83
2022/10/30 00:32:33;;;;;;;1.52;0.93;;;15.80;99.90;;;;;;5009603;28;20044;-83
2022/10/30 00:35:01;;;;;;;1.48;0.95;;;15.80;99.90;;;;;;5045682;28;20057;-86
2022/10/30 00:37:28;;;;;;;1.73;0.80;;;15.80;99.90;;;;;;5031962;28;20054;-84
2022/10/30 00:39:55;;;;;;;2.25;1.00;;;15.90;99.90;;;;;;5022150;28;20053;-85
2022/10/30 00:42:22;;;;;;;1.15;0.70;;;15.90;99.90;;;;;;4992739;28;20497;-85
2022/10/30 00:44:51;;;;;;;1.20;0.75;;;15.90;99.90;;;;;;5039929;28;20045;-85
2022/10/30 00:47:37;;;;;;;0.80;0.73;;;16.00;99.90;;;;;;5028164;28;20057;-85
2022/10/30 00:50:21;;;;;;;1.23;0.60;;;16.00;99.90;;;;;;5023725;28;20053;-85
2022/10/30 00:52:51;;;;;;;;;;;16.00;99.90;;;;;;5007992;28;20057;-85
2022/10/30 00:55:24;;;;;;;0.98;0.57;;;16.00;99.90;;;;;;5042128;28;20170;-85
2022/10/30 00:57:52;;;;;;;;;;;16.00;99.90;;;;;;5028955;28;20045;-85
2022/10/30 01:00:20;;;;;;;0.98;0.60;;;16.00;99.90;;;;;;5045504;28;20435;-85
2022/10/30 01:02:47;;;;;;;0.50;0.50;;;16.00;99.90;;;;;;5011258;28;20056;-85
2022/10/30 01:05:15;;;;;;;0.85;0.60;;;16.00;99.90;;;;;;5027510;28;20067;-85
2022/10/30 01:07:42;;;;;;;2.00;0.60;;;15.90;99.90;;;;;;5027604;28;20052;-85
2022/10/30 01:10:09;;;;;;;0.93;0.57;;;15.90;99.90;;;;;;5025683;28;20067;-84
2022/10/30 01:12:36;;;;;;;1.80;0.77;;;15.90;99.90;;;;;;5043780;28;20069;-82
2022/10/30 01:15:03;;;;;;;1.92;0.80;;;15.90;99.90;;;;;;5027952;28;20049;-84
2022/10/30 01:17:52;;;;;;;3.15;1.10;;;15.80;99.90;;;;;;5027692;28;20232;-84
2022/10/30 01:20:25;;;;;;;1.58;0.80;;;15.80;99.90;;;;;;5036480;28;20076;-85
2022/10/30 01:23:14;;;;;;;1.92;0.90;;;15.70;99.90;;;;;;5040338;28;20055;-85
2022/10/30 01:26:13;;;;;;;1.33;0.60;;;15.70;99.90;;;;;;5024756;28;20061;-85
2022/10/30 01:29:10;;;;;;;1.15;0.70;;;15.70;99.90;;;;;;4986913;28;20080;-85
2022/10/30 01:32:00;;;;;;;0.63;0.60;;;15.70;99.90;;;;;;5021461;28;20413;-85
2022/10/30 01:34:36;;;;;;;1.13;0.43;;;15.70;99.90;;;;;;5030558;28;20052;-85
2022/10/30 01:37:06;;;;;;;1.02;0.50;;;15.70;99.90;;;;;;5023286;28;20053;-86
2022/10/30 01:39:36;;;;;;;0.50;0.50;;;15.70;99.90;;;;;;5035697;28;20063;-83
2022/10/30 01:42:40;;;;;;;0.68;0.50;;;15.70;99.90;;;;;;5043056;28;20480;-84
2022/10/30 01:45:07;;;;;;;0.77;0.60;;;15.60;99.90;;;;;;5045208;28;20044;-85
2022/10/30 01:47:53;;;;;;;1.45;0.65;;;15.70;99.90;;;;;;5026180;28;20573;-84
2022/10/30 01:50:39;;;;;;;0.75;0.52;;;15.70;99.90;;;;;;5032994;28;20049;-83
2022/10/30 01:53:31;;;;;;;0.93;0.60;;;15.70;99.90;;;;;;5043000;28;20048;-83
2022/10/30 01:56:19;;;;;;;1.45;0.70;;;15.70;99.90;;;;;;5009424;28;20500;-83
2022/10/30 01:59:24;;;;;;;1.15;0.60;;;15.70;99.90;;;;;;5024781;28;20509;-83
2022/10/30 02:01:53;;;;;;;1.13;0.68;;;15.70;99.90;;;;;;5025417;28;20048;-84
2022/10/30 02:04:20;;;;;;;0.63;0.45;;;15.70;99.90;;;;;;5027228;28;20080;-84
2022/10/30 02:06:47;;;;;;;0.80;0.60;;;15.70;99.90;;;;;;5023121;28;20129;-84
2022/10/30 02:09:15;;;;;;;2.47;0.52;;;15.70;99.90;;;;;;5024172;28;20059;-84
2022/10/30 02:11:42;;;;;;;0.90;0.57;;;15.70;99.90;;;;;;5016741;28;20472;-84
2022/10/30 02:14:09;;;;;;;0.98;0.60;;;15.70;99.90;;;;;;5032820;28;20373;-82
2022/10/30 02:16:40;;;;;;;0.85;0.50;;;15.70;99.90;;;;;;5027070;28;20088;-84
2022/10/30 02:19:07;;;;;;;0.50;0.38;;;15.70;99.90;;;;;;5042338;28;20128;-84
2022/10/30 02:21:34;;;;;;;0.50;0.50;;;15.70;99.90;;;;;;5040695;28;20051;-85
2022/10/30 02:24:01;;;;;;;1.13;0.73;;;15.70;99.90;;;;;;5026471;28;20067;-84
2022/10/30 02:26:28;;;;;;;1.55;0.60;;;15.70;99.90;;;;;;5043681;28;20045;-84
2022/10/30 02:28:55;;;;;;;0.80;0.35;;;15.70;99.90;;;;;;5040052;28;20069;-84
2022/10/30 02:31:22;;;;;;;0.45;0.30;;;15.70;99.90;;;;;;4995901;28;20066;-84
2022/10/30 02:33:48;;;;;;;0.60;0.50;;;15.70;99.90;;;;;;5006641;28;20393;-84
2022/10/30 02:36:15;;;;;;;0.90;0.52;;;15.60;99.90;;;;;;5008715;28;20053;-81
2022/10/30 02:38:42;;;;;;;0.88;0.57;;;15.60;99.90;;;;;;5025597;28;20053;-82
2022/10/30 02:41:10;;;;;;;2.05;0.70;;;15.60;99.90;;;;;;5035239;28;20045;-81
2022/10/30 02:43:36;;;;;;;1.05;0.60;;;15.60;99.90;;;;;;5031485;28;20056;-82
2022/10/30 02:46:04;;;;;;;0.70;0.40;;;15.50;99.90;;;;;;5038753;28;20533;-81
2022/10/30 02:48:31;;;;;;;0.70;0.47;;;15.50;99.90;;;;;;5030664;28;20044;-81
2022/10/30 02:51:00;;;;;;;1.83;0.60;;;15.40;99.90;;;;;;5024672;28;20063;-83
2022/10/30 02:53:26;;;;;;;0.50;0.50;;;15.30;99.90;;;;;;5038779;28;20045;-84
2022/10/30 02:55:53;;;;;;;1.08;0.63;;;15.30;99.90;;;;;;5030363;28;20045;-84
2022/10/30 02:58:20;;;;;;;0.77;0.43;;;15.20;99.90;;;;;;5013757;28;20417;-85
2022/10/30 03:00:46;;;;;;;0.40;0.40;;;15.20;99.90;;;;;;5027081;28;20334;-84
2022/10/30 03:03:13;;;;;;;1.27;0.50;;;15.20;99.90;;;;;;5028451;28;20052;-84
2022/10/30 03:05:46;;;;;;;0.40;0.40;;;15.10;99.90;;;;;;5008387;28;20106;-84
2022/10/30 03:08:13;;;;;;;0.77;0.50;;;15.10;99.90;;;;;;5047362;28;20476;-84
2022/10/30 03:10:39;;;;;;;0.65;0.40;;;15.10;99.90;;;;;;5010731;28;20044;-82
2022/10/30 03:13:06;;;;;;;0.30;0.30;;;15.00;99.90;;;;;;5030506;28;20049;-84
2022/10/30 03:15:33;;;;;;;0.80;0.30;;;15.00;99.90;;;;;;5047820;28;20067;-84
2022/10/30 03:18:00;;;;;;;0.95;0.40;;;14.90;99.90;;;;;;5045752;28;20532;-82
2022/10/30 03:20:26;;;;;;;0.35;0.35;;;14.90;99.90;;;;;;5047514;28;20075;-84
2022/10/30 03:22:53;;;;;;;0.77;0.43;;;14.80;99.90;;;;;;5044411;28;20067;-85
2022/10/30 03:25:22;;;;;;;0.60;0.50;;;14.80;99.90;;;;;;5047434;28;20052;-84
2022/10/30 03:27:49;;;;;;;0.80;0.47;;;14.70;99.90;;;;;;5046852;28;20110;-84
2022/10/30 03:30:17;;;;;;;1.38;0.52;;;14.70;99.90;;;;;;5029637;28;20132;-84
2022/10/30 03:32:43;;;;;;;0.30;0.30;;;14.60;99.90;;;;;;5046208;28;20195;-83
2022/10/30 03:35:10;;;;;;;0.55;0.40;;;14.60;99.90;;;;;;5044857;28;20081;-83
2022/10/30 03:37:37;;;;;;;1.40;0.38;;;14.60;99.90;;;;;;5046470;28;20057;-85
2022/10/30 03:40:05;;;;;;;0.57;0.50;;;14.60;99.90;;;;;;5013297;28;20152;-84
2022/10/30 03:42:32;;;;;;;2.15;0.50;;;14.60;99.90;;;;;;5047068;28;20057;-84
2022/10/30 03:44:59;;;;;;;0.52;0.40;;;14.60;99.90;;;;;;5012480;28;20412;-84
2022/10/30 03:47:25;;;;;;;2.05;0.90;;;14.60;99.90;;;;;;5008963;28;20500;-84
2022/10/30 03:49:53;;;;;;;1.75;0.70;;;14.60;99.90;;;;;;4996878;28;20064;-84
2022/10/30 03:52:19;;;;;;;0.85;0.43;;;14.50;99.90;;;;;;5025593;28;20054;-84
2022/10/30 03:54:46;;;;;;;0.70;0.40;;;14.50;99.90;;;;;;5028311;28;20053;-83
2022/10/30 03:57:13;;;;;;;0.50;0.50;;;14.50;99.90;;;;;;5036811;28;20076;-83
2022/10/30 03:59:40;;;;;;;1.98;0.50;;;14.50;99.90;;;;;;5025129;28;20469;-83
2022/10/30 04:02:07;;;;;;;0.57;0.52;;;14.50;99.90;;;;;;5008751;28;20053;-84
2022/10/30 04:04:35;;;;;;;1.25;0.60;;;14.40;99.90;;;;;;5026483;28;20592;-84
2022/10/30 04:07:02;;;;;;;0.85;0.63;;;14.40;99.90;;;;;;5029956;28;20052;-84
2022/10/30 04:09:28;;;;;;;0.90;0.60;;;14.40;99.90;;;;;;5045462;28;20413;-80
2022/10/30 04:11:55;;;;;;;0.40;0.40;;;14.40;99.90;;;;;;5011530;28;20081;-83
2022/10/30 04:14:22;;;;;;;0.47;0.40;;;14.30;99.90;;;;;;5027586;28;20060;-83
2022/10/30 04:16:49;;;;;;;0.45;0.40;;;14.30;99.90;;;;;;5042900;28;20048;-82
2022/10/30 04:19:16;;;;;;;1.40;0.65;;;14.30;99.90;;;;;;5044451;28;20053;-83
2022/10/30 04:21:42;;;;;;;1.00;0.55;;;14.30;99.90;;;;;;5043171;28;20057;-83
2022/10/30 04:24:10;;;;;;;1.33;0.50;;;14.30;99.90;;;;;;5045846;28;20045;-84
2022/10/30 04:26:37;;;;;;;0.70;0.40;;;14.30;99.90;;;;;;5045018;28;20629;-83
2022/10/30 04:29:04;;;;;;;0.47;0.38;;;14.30;99.90;;;;;;5044731;28;20056;-84
2022/10/30 04:31:31;;;;;;;1.85;0.60;;;14.30;99.90;;;;;;5045180;28;20601;-84
2022/10/30 04:33:58;;;;;;;1.95;0.47;;;14.30;99.90;;;;;;5024338;28;20049;-84
2022/10/30 04:36:31;;;;;;;1.23;0.68;;;14.30;99.90;;;;;;5025314;28;20045;-84
2022/10/30 04:38:59;;;;;;;0.80;0.47;;;14.40;99.90;;;;;;5046349;28;20056;-86
2022/10/30 04:41:25;;;;;;;0.93;0.55;;;14.30;99.90;;;;;;5046850;28;20053;-85
2022/10/30 04:43:52;;;;;;;0.60;0.50;;;14.40;99.90;;;;;;5045685;28;20053;-84
2022/10/30 04:46:19;;;;;;;1.30;0.90;;;14.40;99.90;;;;;;5045600;28;20056;-85
2022/10/30 04:48:46;;;;;;;0.73;0.40;;;14.40;99.90;;;;;;5009620;28;20432;-85
2022/10/30 04:51:13;;;;;;;0.85;0.30;;;14.40;99.90;;;;;;5008564;28;20048;-85
2022/10/30 04:53:41;;;;;;;1.25;0.57;;;14.40;99.90;;;;;;5036699;28;20520;-85
2022/10/30 04:56:08;;;;;;;0.50;0.40;;;14.50;99.90;;;;;;5047344;28;20710;-85
2022/10/30 04:58:35;;;;;;;0.77;0.50;;;14.50;99.90;;;;;;5013131;28;20681;-85
2022/10/30 05:01:04;;;;;;;0.93;0.50;;;14.50;99.90;;;;;;5021263;28;20050;-84
2022/10/30 05:03:31;;;;;;;0.47;0.47;;;14.50;99.90;;;;;;5034992;28;20118;-85
2022/10/30 05:06:03;;;;;;;0.50;0.40;;;14.50;99.90;;;;;;5028050;28;20124;-85
2022/10/30 05:08:31;;;;;;;0.57;0.50;;;14.50;99.90;;;;;;5028241;28;20042;-85
2022/10/30 05:10:58;;;;;;;0.57;0.50;;;14.50;99.90;;;;;;5025235;28;20509;-85
2022/10/30 05:13:25;;;;;;;1.15;0.60;;;14.50;99.90;;;;;;5025529;28;20049;-83
2022/10/30 05:15:53;;;;;;;1.27;0.55;;;14.60;99.90;;;;;;5026187;28;20049;-83
2022/10/30 05:18:20;;;;;;;1.80;0.57;;;14.60;99.90;;;;;;5038857;28;20049;-83
2022/10/30 05:20:46;;;;;;;1.77;0.68;;;14.60;99.90;;;;;;5047434;28;20527;-83
2022/10/30 05:23:13;;;;;;;1.00;0.50;;;14.60;99.90;;;;;;5027919;28;20079;-83
2022/10/30 05:25:40;;;;;;;0.40;0.40;;;14.70;99.90;;;;;;5029498;28;20046;-84
2022/10/30 05:28:06;;;;;;;1.00;0.43;;;14.70;99.90;;;;;;5029701;28;20508;-83
2022/10/30 05:30:33;;;;;;;1.33;0.60;;;14.70;99.90;;;;;;5030611;28;20045;-83
2022/10/30 05:33:01;;;;;;;0.45;0.40;;;14.70;99.90;;;;;;5047221;28;20053;-83
2022/10/30 05:35:29;;;;;;;1.63;0.50;;;14.70;99.90;;;;;;5031061;28;20045;-83
2022/10/30 05:37:56;;;;;;;0.82;0.50;;;14.80;99.90;;;;;;5046080;28;20436;-83
2022/10/30 05:40:22;;;;;;;0.43;0.40;;;14.80;99.90;;;;;;5049464;28;20077;-83
2022/10/30 05:42:49;;;;;;;1.63;0.55;;;14.80;99.90;;;;;;5047379;28;20055;-83
2022/10/30 05:45:16;;;;;;;0.52;0.38;;;14.80;99.90;;;;;;5018845;28;20118;-83
2022/10/30 05:47:43;;;;;;;1.63;0.80;;;14.80;99.90;;;;;;5034656;28;20071;-83
2022/10/30 05:50:12;;;;;;;0.60;0.43;;;14.80;99.90;;;;;;5011760;28;20053;-83
2022/10/30 05:52:39;;;;;;;0.65;0.32;;;14.80;99.90;;;;;;5044686;28;20384;-82
2022/10/30 05:55:06;;;;;;;1.02;0.57;;;14.80;99.90;;;;;;5027803;28;20055;-83
2022/10/30 05:57:33;;;;;;;0.90;0.50;;;14.90;99.90;;;;;;5045702;28;20041;-83
2022/10/30 06:00:00;;;;;;;1.42;0.47;;;14.90;99.90;;;;;;5042162;28;20053;-81
2022/10/30 06:02:26;;;;;;;1.13;0.60;;;14.90;99.90;;;;;;5024144;28;20348;-81
2022/10/30 06:04:53;;;;;;;0.73;0.60;;;14.90;99.90;;;;;;5038360;28;20513;-83
2022/10/30 06:07:20;;;;;;;1.00;0.55;;;14.90;99.90;;;;;;5028097;28;20817;-84
2022/10/30 06:09:47;;;;;;;2.15;0.73;;;14.90;99.90;;;;;;5034599;28;20054;-84
2022/10/30 06:12:13;;;;;;;1.15;0.60;;;15.00;99.90;;;;;;5028537;28;20591;-84
2022/10/30 06:14:41;;;;;;;1.48;0.60;;;15.00;99.90;;;;;;5014160;28;20128;-84
2022/10/30 06:17:07;;;;;;;1.02;0.50;;;15.00;99.90;;;;;;5046110;28;20048;-85
2022/10/30 06:19:34;;;;;;;1.55;0.60;;;15.10;99.90;;;;;;5046703;28;20534;-84
2022/10/30 06:22:01;;;;;;;1.05;0.52;;;15.10;99.90;;;;;;5028958;28;20394;-84
2022/10/30 06:24:28;;;;;;;1.15;0.50;;;15.10;99.90;;;;;;5027405;28;20050;-84
2022/10/30 06:26:55;;;;;;;1.23;0.50;;;15.10;99.90;;;;;;5024738;28;20049;-84
2022/10/30 06:29:22;;;;;;;1.90;0.60;;;15.10;99.90;;;;;;5037991;28;20057;-83
2022/10/30 06:31:48;;;;;;;0.90;0.60;;;15.20;99.90;;;;;;5010246;28;20048;-83
2022/10/30 06:34:15;;;;;;;1.38;0.60;;;15.20;99.90;;;;;;5044902;28;20045;-84
2022/10/30 06:36:42;;;;;;;1.02;0.60;;;15.20;99.90;;;;;;5029446;28;20370;-84
2022/10/30 06:39:09;;;;;;;0.68;0.40;;;15.20;99.90;;;;;;5005786;28;20049;-85
2022/10/30 06:41:35;;;;;;;1.30;0.55;;;15.20;99.90;;;;;;5026418;28;20045;-83
2022/10/30 06:44:02;;;;;;;0.60;0.38;;;15.30;99.90;;;;;;5031687;28;20057;-84
2022/10/30 06:46:29;;;;;;;1.33;0.55;;;15.30;99.90;;;;;;5009631;28;20091;-83
2022/10/30 06:48:59;;;;;;;1.48;0.52;;;15.30;99.90;;;;;;5014349;28;20106;-83
2022/10/30 06:51:26;;;;;;;0.60;0.47;;;15.30;99.90;;;;;;5045405;28;20362;-83
2022/10/30 06:53:53;;;;;;;0.80;0.50;;;15.30;99.90;;;;;;5028410;28;20397;-82
2022/10/30 06:56:19;;;;;;;1.25;0.50;;;15.30;99.90;;;;;;5009984;28;20048;-83
2022/10/30 06:58:46;;;;;;;1.25;0.50;;;15.30;99.90;;;;;;5015877;28;20080;-84
2022/10/30 07:01:13;;;;;;;0.57;0.50;;;15.30;99.90;;;;;;5020823;28;20056;-84
2022/10/30 07:03:40;;;;;;;0.65;0.40;;;15.30;99.90;;;;;;5013684;28;20045;-83
2022/10/30 07:06:07;;;;;;;2.22;0.75;;;15.30;99.90;;;;;;5023224;28;20057;-84
2022/10/30 07:08:33;;;;;;;1.27;0.52;;;15.30;99.90;;;;;;5028353;28;20048;-84
2022/10/30 07:11:00;;;;;;;0.85;0.38;;;15.30;99.90;;;;;;5013546;28;20074;-84
2022/10/30 07:13:27;;;;;;;0.90;0.50;;;15.20;99.90;;;;;;5015542;28;20051;-82
2022/10/30 07:15:54;;;;;;;1.15;0.65;;;15.20;99.90;;;;;;5009011;28;20056;-84
2022/10/30 07:18:20;;;;;;;1.90;0.80;;;15.10;99.90;;;;;;4999147;28;20133;-84
2022/10/30 07:20:47;;;;;;;0.90;0.60;;;15.10;99.90;;;;;;5026762;28;20132;-83
2022/10/30 07:23:14;;;;;;;0.75;0.57;;;15.10;99.90;;;;;;5032183;28;20068;-84
2022/10/30 07:25:41;;;;;;;2.08;0.55;;;15.10;99.90;;;;;;5014609;28;20047;-83
2022/10/30 07:28:07;;;;;;;1.77;0.90;;;15.10;99.90;;;;;;5004239;28;20049;-83
2022/10/30 07:30:34;;;;;;;0.85;0.57;;;15.10;99.90;;;;;;5032978;28;20060;-84
2022/10/30 07:33:02;;;;;;;1.52;0.70;;;15.00;99.90;;;;;;5028297;28;20049;-82
2022/10/30 07:35:30;;;;;;;1.33;0.60;;;15.00;99.90;;;;;;5013865;28;20059;-83
2022/10/30 07:38:02;;;;;;;1.63;0.70;;;15.00;99.90;;;;;;5025021;28;20048;-83
2022/10/30 07:40:29;;;;;;;1.27;0.68;;;15.00;99.90;;;;;;5002271;28;20052;-83
2022/10/30 07:42:56;;;;;;;1.60;0.70;;;15.00;99.90;;;;;;5000010;28;20075;-84
2022/10/30 07:45:23;;;;;;;1.08;0.50;;;15.00;99.90;;;;;;5005069;28;20901;-83
2022/10/30 07:47:51;;;;;;;1.38;0.77;;;14.90;99.90;;;;;;5017275;28;20072;-84
2022/10/30 07:50:18;;;;;;;1.23;0.50;;;14.90;99.90;;;;;;5012597;28;20053;-84
2022/10/30 07:52:44;;;;;;;2.05;0.50;;;15.00;99.90;;;;;;5015121;28;20679;-83
2022/10/30 07:55:11;;;;;;;1.23;0.57;;;15.00;99.90;;;;;;5011451;28;20057;-82
2022/10/30 07:57:39;;;;;;;0.73;0.50;;;15.00;99.90;;;;;;5030236;28;20057;-83
2022/10/30 08:00:10;;;;;;;1.65;0.52;;;15.00;99.90;;;;;;5000342;28;20596;-85
2022/10/30 08:02:38;;;;;;;1.13;0.75;;;15.00;99.90;;;;;;5016109;28;20049;-85
2022/10/30 08:05:05;;;;;;;1.05;0.70;;;15.00;99.90;;;;;;4997025;28;20056;-84
2022/10/30 08:07:33;;;;;;;2.10;0.73;;;15.00;99.90;;;;;;5027679;28;20408;-84
2022/10/30 08:10:00;;;;;;;0.88;0.55;;;15.00;99.90;;;;;;5032556;28;20055;-83
2022/10/30 08:12:27;;;;;;;1.20;0.68;;;15.00;99.90;;;;;;4998675;28;20049;-84
2022/10/30 08:14:54;;;;;;;2.08;0.75;;;15.00;99.90;;;;;;5029508;28;20426;-83
2022/10/30 08:17:21;;;;;;;1.27;0.57;;;15.00;99.90;;;;;;5022404;28;20059;-84
2022/10/30 08:19:48;;;;;;;0.55;0.50;;;15.00;99.90;;;;;;4992704;28;20053;-83
2022/10/30 08:22:14;;;;;;;1.13;0.68;;;15.00;99.90;;;;;;5010319;28;20124;-84
2022/10/30 08:24:43;;;;;;;1.02;0.73;;;15.00;99.90;;;;;;5023269;28;20061;-84
2022/10/30 08:27:09;;;;;;;1.52;0.80;;;15.00;99.90;;;;;;5005028;28;20048;-83
2022/10/30 08:29:36;;;;;;;1.65;0.77;;;15.00;99.90;;;;;;5021422;28;20054;-82
2022/10/30 08:32:03;;;;;;;1.77;0.88;;;15.00;99.90;;;;;;5016749;28;20502;-83
2022/10/30 08:34:31;;;;;;;1.10;0.50;;;15.00;99.90;;;;;;5018183;28;20064;-83
2022/10/30 08:36:58;;;;;;;1.77;0.70;;;15.10;99.90;;;;;;5006826;28;20079;-83
2022/10/30 08:39:25;;;;;;;0.63;0.35;;;15.10;99.90;;;;;;5025996;28;20125;-83
2022/10/30 08:41:53;;;;;;;0.47;0.40;;;15.10;99.90;;;;;;5009752;28;20049;-82
2022/10/30 08:44:20;;;;;;;1.17;0.70;;;15.10;99.90;;;;;;5033461;28;20061;-84
2022/10/30 08:46:47;;;;;;;1.00;0.50;;;15.20;99.90;;;;;;5019162;28;20605;-82
2022/10/30 08:49:14;;;;;;;0.90;0.50;;;15.10;99.90;;;;;;5021369;28;20076;-84
2022/10/30 08:51:41;;;;;;;1.60;0.70;;;15.10;99.90;;;;;;5034010;28;20136;-83
2022/10/30 08:54:09;;;;;;;1.95;0.90;;;15.10;99.90;;;;;;5036320;28;20136;-83
2022/10/30 08:56:35;;;;;;;0.90;0.40;;;15.10;99.90;;;;;;5006041;28;20049;-82
2022/10/30 08:59:02;;;;;;;1.75;0.60;;;15.10;99.90;;;;;;5007391;28;20045;-84
2022/10/30 09:01:29;;;;;;;1.92;1.00;;;15.10;99.90;;;;;;5020672;28;20041;-83
2022/10/30 09:03:56;;;;;;;1.42;0.40;;;15.10;99.90;;;;;;5033286;28;20054;-84
2022/10/30 09:06:23;;;;;;;1.23;0.70;;;15.00;99.90;;;;;;5017821;28;20508;-82
2022/10/30 09:08:50;;;;;;;2.38;0.75;;;15.00;99.90;;;;;;5027948;28;20147;-82
2022/10/30 09:11:16;;;;;;;1.30;0.73;;;15.00;99.90;;;;;;5018638;28;20057;-84
2022/10/30 09:13:43;;;;;;;1.85;1.10;;;15.00;99.90;;;;;;5030082;28;20396;-83
2022/10/30 09:16:10;;;;;;;1.98;1.15;;;14.90;99.90;;;;;;5024948;28;20440;-83
2022/10/30 09:18:37;;;;;;;1.45;0.90;;;14.90;99.90;;;;;;5027029;28;20499;-84
2022/10/30 09:21:04;;;;;;;2.17;1.00;;;14.90;99.90;;;;;;5021573;28;20129;-83
2022/10/30 09:23:32;;;;;;;1.15;0.80;;;14.90;99.90;;;;;;5018434;28;20572;-83
2022/10/30 09:25:58;;;;;;;1.27;0.73;;;14.90;99.90;;;;;;5023306;28;20045;-83
2022/10/30 09:28:25;;;;;;;1.60;0.85;;;14.90;99.90;;;;;;5030333;28;20045;-83
2022/10/30 09:30:55;;;;;;;2.25;1.00;;;14.90;99.90;;;;;;5029145;28;20050;-85
2022/10/30 09:33:22;;;;;;;1.00;0.60;;;14.90;99.90;;;;;;5032262;28;20128;-83
2022/10/30 09:35:48;;;;;;;1.70;0.70;;;14.90;99.90;;;;;;5021990;28;20049;-83
2022/10/30 09:38:15;;;;;;;1.35;0.80;;;14.90;99.90;;;;;;5017622;28;20521;-83
2022/10/30 09:40:42;;;;;;;1.48;0.73;;;14.90;99.90;;;;;;5031696;28;20049;-84
2022/10/30 09:43:33;;;;;;;1.45;0.80;;;14.90;99.90;;;;;;5024900;28;20045;-83
2022/10/30 09:46:06;;;;;;;0.85;0.55;;;14.90;99.90;;;;;;5036555;28;20050;-83
2022/10/30 09:48:55;;;;;;;0.80;0.50;;;14.90;99.90;;;;;;5019756;28;20053;-84
2022/10/30 09:51:44;;;;;;;0.80;0.60;;;14.90;99.90;;;;;;5022089;28;20519;-83
2022/10/30 09:54:37;;;;;;;0.75;0.55;;;14.90;99.90;;;;;;5034593;28;20088;-84
2022/10/30 09:57:04;;;;;;;;;;;15.00;99.90;;;;;;5024224;28;20471;-84
2022/10/30 10:00:10;;;;;;;0.60;0.50;;;15.00;99.90;;;;;;5033046;28;20529;-81
2022/10/30 10:02:50;;;;;;;1.10;0.65;;;14.90;99.90;;;;;;5018272;28;20057;-83
2022/10/30 10:05:23;;;;;;;1.20;0.57;;;14.90;99.90;;;;;;5009846;28;20056;-84
2022/10/30 10:08:23;;;;;;;;;;;14.80;99.90;;;;;;5012140;28;20053;-81
2022/10/30 10:11:00;;;;;;;1.25;0.40;;;14.80;99.90;;;;;;5032218;28;19920;-82
2022/10/30 10:13:30;;;;;;;1.27;0.70;;;14.80;99.90;;;;;;5024513;28;21043;-82
2022/10/30 10:16:19;;;;;;;1.30;0.70;;;14.80;99.90;;;;;;5029309;28;20053;-86
2022/10/30 10:18:47;;;;;;;1.15;0.50;;;14.90;99.90;;;;;;5017506;28;20050;-78
2022/10/30 10:21:24;;;;;;;1.15;0.50;;;15.00;99.90;;;;;;5036769;28;20055;-80
2022/10/30 10:23:53;;;;;;;0.70;0.50;;;15.00;99.90;;;;;;5021069;28;20129;-78
2022/10/30 10:26:28;;;;;;;1.52;0.50;;;15.10;99.90;;;;;;5021669;28;20048;-78
2022/10/30 10:29:07;;;;;;;0.55;0.40;;;15.20;99.90;;;;;;5022629;28;20061;-78
2022/10/30 10:31:53;;;;;;;0.82;0.45;;;15.20;99.90;;;;;;5033453;28;20052;-78
2022/10/30 10:34:45;;;;;;;0.85;0.60;;;15.20;99.90;;;;;;5013707;28;20053;-79
2022/10/30 10:37:31;;;;;;;1.20;0.55;;;15.20;99.90;;;;;;5030383;28;20049;-80
2022/10/30 10:40:12;;;;;;;1.35;0.70;;;15.20;99.90;;;;;;5030376;28;20041;-79
2022/10/30 10:42:56;;;;;;;1.35;0.47;;;15.20;99.90;;;;;;5033138;28;20141;-78
2022/10/30 10:45:54;;;;;;;0.60;0.60;;;15.30;99.90;;;;;;5032271;28;20068;-79
2022/10/30 10:48:39;;;;;;;0.68;0.55;;;15.30;99.90;;;;;;5026096;28;20049;-79
2022/10/30 10:51:32;;;;;;;2.20;0.80;;;15.30;99.90;;;;;;5033485;28;20045;-79
2022/10/30 10:54:01;;;;;;;0.77;0.50;;;15.30;99.90;;;;;;5029911;28;20048;-79
2022/10/30 10:56:38;;;;;;;1.00;0.68;;;15.30;99.90;;;;;;5016416;28;20064;-79
2022/10/30 10:59:20;;;;;;;0.95;0.45;;;15.30;99.90;;;;;;5024901;28;20133;-78
2022/10/30 11:02:21;;;;;;;0.93;0.65;;;15.30;99.90;;;;;;5014446;28;20051;-79
2022/10/30 11:04:50;;;;;;;1.38;0.60;;;15.40;99.90;;;;;;5009348;28;20156;-79
2022/10/30 11:07:20;;;;;;;0.93;0.70;;;15.30;99.90;;;;;;5024863;28;20056;-78
2022/10/30 11:09:50;;;;;;;1.15;0.60;;;15.40;99.90;;;;;;5045481;28;20136;-79
2022/10/30 11:12:27;;;;;;;0.45;0.40;;;15.40;99.90;;;;;;5012746;28;20051;-80
2022/10/30 11:15:03;;;;;;;0.85;0.45;;;15.50;99.90;;;;;;5026657;28;20556;-81
2022/10/30 11:17:56;;;;;;;0.80;0.60;;;15.60;99.90;;;;;;5021079;28;20118;-80
2022/10/30 11:20:48;;;;;;;0.55;0.55;;;15.70;99.90;;;;;;5044091;28;20049;-80
2022/10/30 11:23:38;;;;;;;0.68;0.47;;;15.80;99.90;;;;;;5032921;28;20038;-80
2022/10/30 11:26:27;;;;;;;1.05;0.60;;;15.90;99.90;;;;;;5000291;28;20045;-81
2022/10/30 11:28:55;;;;;;;1.27;0.57;;;16.00;99.90;;;;;;5016514;28;20045;-79
2022/10/30 11:31:22;;;;;;;1.00;0.50;;;16.10;99.90;;;;;;5009431;28;20128;-83
2022/10/30 11:33:49;;;;;;;0.60;0.35;;;16.10;99.90;;;;;;5026701;28;20053;-81
2022/10/30 11:36:18;;;;;;;1.40;0.60;;;16.10;99.90;;;;;;5001296;28;20851;-80
2022/10/30 11:38:45;;;;;;;1.20;0.50;;;16.20;99.90;;;;;;5004669;28;20121;-80
2022/10/30 11:41:12;;;;;;;1.90;0.63;;;16.20;99.90;;;;;;5024211;28;20140;-79
2022/10/30 11:43:39;;;;;;;0.73;0.50;;;16.30;99.90;;;;;;5018636;28;20470;-79
2022/10/30 11:46:09;;;;;;;0.85;0.63;;;16.40;99.90;;;;;;5020902;28;20136;-80
2022/10/30 11:48:38;;;;;;;0.93;0.47;;;16.40;99.90;;;;;;5018738;28;20100;-80
2022/10/30 11:51:05;;;;;;;0.93;0.60;;;16.60;99.90;;;;;;5033269;28;20065;-80
2022/10/30 11:53:38;;;;;;;0.60;0.60;;;16.70;99.90;;;;;;5002578;28;20050;-80
2022/10/30 11:56:14;;;;;;;1.65;0.75;;;16.80;99.90;;;;;;5019884;28;20497;-80
2022/10/30 11:58:44;;;;;;;1.08;0.50;;;16.70;99.90;;;;;;5014421;28;20609;-80
2022/10/30 12:01:20;;;;;;;0.98;0.60;;;16.70;99.90;;;;;;5028591;28;20053;-80
2022/10/30 12:03:48;;;;;;;0.77;0.43;;;16.60;99.90;;;;;;5031275;28;20052;-79
2022/10/30 12:06:24;;;;;;;0.50;0.40;;;16.60;99.90;;;;;;5015422;28;20068;-77
2022/10/30 12:09:20;;;;;;;1.48;0.68;;;16.60;99.90;;;;;;5033481;28;20072;-80
2022/10/30 12:11:47;;;;;;;0.57;0.38;;;16.60;99.90;;;;;;4999651;28;20041;-80
2022/10/30 12:14:19;;;;;;;0.60;0.50;;;16.60;99.90;;;;;;5013803;28;20056;-80
2022/10/30 12:16:50;;;;;;;0.88;0.50;;;16.50;99.90;;;;;;5018349;28;20619;-80
2022/10/30 12:19:18;;;;;;;0.65;0.40;;;16.70;99.90;;;;;;5021133;28;20489;-80
2022/10/30 12:21:50;;;;;;;2.10;0.73;;;16.70;99.90;;;;;;5004502;28;20143;-81
2022/10/30 12:24:31;;;;;;;0.60;0.43;;;16.70;99.90;;;;;;5009493;28;21409;-80
2022/10/30 12:27:01;;;;;;;0.93;0.43;;;16.80;99.90;;;;;;5006643;28;20061;-81
2022/10/30 12:29:53;;;;;;;0.85;0.50;;;16.90;99.90;;;;;;5007341;28;20041;-84
2022/10/30 12:32:43;;;;;;;0.70;0.50;;;16.90;99.90;;;;;;5010882;28;20049;-83
2022/10/30 12:35:27;;;;;;;1.13;0.55;;;17.00;99.90;;;;;;5022897;28;20053;-78
2022/10/30 12:37:54;;;;;;;0.40;0.30;;;17.00;99.90;;;;;;5018045;28;20129;-80
2022/10/30 12:40:30;;;;;;;1.00;0.50;;;17.00;99.90;;;;;;5012275;28;20052;-81
2022/10/30 12:43:02;;;;;;;0.77;0.60;;;17.00;99.90;;;;;;5017942;28;20060;-81
2022/10/30 12:45:42;;;;;;;1.00;0.52;;;17.00;99.90;;;;;;5020932;28;20136;-80
2022/10/30 12:48:27;;;;;;;1.40;0.73;;;17.00;99.90;;;;;;4993644;28;20136;-81
2022/10/30 12:51:26;;;;;;;1.38;0.73;;;17.00;99.90;;;;;;5004630;28;20064;-80
2022/10/30 12:53:57;;;;;;;2.53;0.80;;;16.90;99.90;;;;;;5021176;28;20614;-81
2022/10/30 12:56:27;;;;;;;0.73;0.50;;;16.90;99.90;;;;;;5004119;28;20064;-80
2022/10/30 12:59:29;;;;;;;1.85;1.00;;;17.00;99.90;;;;;;5020320;28;20041;-80
2022/10/30 13:02:25;;;;;;;1.42;0.85;;;17.00;99.90;;;;;;5003968;28;20049;-81
2022/10/30 13:04:54;;;;;;;2.10;0.85;;;17.00;99.90;;;;;;5035037;28;20286;-81
2022/10/30 13:07:25;;;;;;;1.10;0.68;;;17.00;99.90;;;;;;5002244;28;20496;-84